Time;durP1;ratioP1;P1;durP2;ratioP2;P2;SDS_P1;SDS_P2;PMS_P1;PMS_P2;Temp;Humidity;BMP_temperature;BMP_pressure;BME280_temperature;BME280_humidity;BME280_pressure;Samples;Min_cycle;Max_cycle;Signal;HPM_P1;HPM_P2
2023/09/04 00:00:45;;;;;;;23.90;12.80;;;;;;;-128.00;-1.00;-1.00;105613;1250;1004708;-80
2023/09/04 00:03:32;;;;;;;27.60;12.50;;;;;;;-128.00;-1.00;-1.00;105413;1251;1046942;-80
2023/09/04 00:05:58;;;;;;;26.40;12.20;;;;;;;-128.00;-1.00;-1.00;105614;1251;1004840;-80
2023/09/04 00:08:25;;;;;;;27.50;13.10;;;;;;;-128.00;-1.00;-1.00;105577;1250;1004040;-80
2023/09/04 00:10:51;;;;;;;23.10;14.00;;;;;;;-128.00;-1.00;-1.00;105474;1252;1004310;-80
2023/09/04 00:13:18;;;;;;;22.20;13.70;;;;;;;-128.00;-1.00;-1.00;105466;1252;1005122;-80
2023/09/04 00:15:44;;;;;;;20.60;13.90;;;;;;;-128.00;-1.00;-1.00;105488;1252;1003713;-80
2023/09/04 00:18:11;;;;;;;22.00;14.20;;;;;;;-128.00;-1.00;-1.00;105486;1253;1004034;-79
2023/09/04 00:20:37;;;;;;;21.00;12.80;;;;;;;-128.00;-1.00;-1.00;105489;1253;1004917;-80
2023/09/04 00:23:04;;;;;;;25.40;12.20;;;;;;;-128.00;-1.00;-1.00;105495;1252;1005133;-80
2023/09/04 00:25:30;;;;;;;18.60;13.00;;;;;;;-128.00;-1.00;-1.00;105496;1253;1004727;-80
2023/09/04 00:27:57;;;;;;;21.10;11.60;;;;;;;-128.00;-1.00;-1.00;105476;1252;1004567;-79
2023/09/04 00:30:25;;;;;;;34.90;10.70;;;;;;;-128.00;-1.00;-1.00;105477;1252;1005191;-79
2023/09/04 00:32:52;;;;;;;33.50;12.00;;;;;;;-128.00;-1.00;-1.00;105491;1253;1004479;-80
2023/09/04 00:35:19;;;;;;;38.30;10.10;;;;;;;-128.00;-1.00;-1.00;105505;1252;1004479;-80
2023/09/04 00:37:45;;;;;;;22.80;10.90;;;;;;;-128.00;-1.00;-1.00;105526;1252;1004267;-80
2023/09/04 00:40:12;;;;;;;30.00;10.70;;;;;;;-128.00;-1.00;-1.00;105729;1253;1004480;-80
2023/09/04 00:42:38;;;;;;;44.70;9.90;;;;;;;-128.00;-1.00;-1.00;105549;1253;1003555;-80
2023/09/04 00:45:07;;;;;;;26.40;10.20;;;;;;;-128.00;-1.00;-1.00;105586;1250;1004835;-80
2023/09/04 00:47:33;;;;;;;24.80;10.40;;;;;;;-128.00;-1.00;-1.00;105618;1251;1004477;-80
2023/09/04 00:50:00;;;;;;;22.60;9.40;;;;;;;-128.00;-1.00;-1.00;105432;1251;1004314;-79
2023/09/04 00:52:26;;;;;;;23.70;9.90;;;;;;;-128.00;-1.00;-1.00;105607;1251;1005005;-80
2023/09/04 00:54:53;;;;;;;19.20;8.20;;;;;;;-128.00;-1.00;-1.00;105638;1251;1004080;-80
2023/09/04 00:57:20;;;;;;;19.20;9.40;;;;;;;-128.00;-1.00;-1.00;105513;1251;1004724;-79
2023/09/04 00:59:46;;;;;;;13.70;9.40;;;;;;;-128.00;-1.00;-1.00;105612;1251;1003641;-80
2023/09/04 01:02:14;;;;;;;15.70;9.80;;;;;;;-128.00;-1.00;-1.00;105444;1251;1004234;-80
2023/09/04 01:04:40;;;;;;;17.80;8.50;;;;;;;-128.00;-1.00;-1.00;105529;1256;1004753;-80
2023/09/04 01:07:07;;;;;;;18.30;10.90;;;;;;;-128.00;-1.00;-1.00;105482;1251;1004124;-79
2023/09/04 01:09:34;;;;;;;19.30;9.20;;;;;;;-128.00;-1.00;-1.00;105605;1251;1004789;-80
2023/09/04 01:12:12;;;;;;;13.90;9.50;;;;;;;-128.00;-1.00;-1.00;105313;1251;1004899;-79
2023/09/04 01:14:38;;;;;;;17.90;9.00;;;;;;;-128.00;-1.00;-1.00;105581;1253;1046369;-79
2023/09/04 01:17:05;;;;;;;14.80;8.40;;;;;;;-128.00;-1.00;-1.00;105635;1251;1004572;-80
2023/09/04 01:19:32;;;;;;;14.00;8.60;;;;;;;-128.00;-1.00;-1.00;105501;1251;1004640;-79
2023/09/04 01:21:58;;;;;;;13.00;8.60;;;;;;;-128.00;-1.00;-1.00;105634;1251;1004591;-79
2023/09/04 01:24:26;;;;;;;12.60;9.10;;;;;;;-128.00;-1.00;-1.00;105631;1250;1004908;-80
2023/09/04 01:27:03;;;;;;;15.70;10.70;;;;;;;-128.00;-1.00;-1.00;105616;1251;1004545;-80
2023/09/04 01:29:39;;;;;;;21.40;9.80;;;;;;;-128.00;-1.00;-1.00;105391;1253;1046184;-80
2023/09/04 01:32:10;;;;;;;17.10;9.20;;;;;;;-128.00;-1.00;-1.00;105638;1251;1060194;-80
2023/09/04 01:34:39;;;;;;;21.30;9.80;;;;;;;-128.00;-1.00;-1.00;105474;1251;1059369;-80
2023/09/04 01:37:06;;;;;;;14.40;9.70;;;;;;;-128.00;-1.00;-1.00;105508;1251;1059765;-80
2023/09/04 01:39:32;;;;;;;19.90;9.90;;;;;;;-128.00;-1.00;-1.00;105486;1252;1004136;-80
2023/09/04 01:41:59;;;;;;;14.30;8.30;;;;;;;-128.00;-1.00;-1.00;105639;1250;1004034;-80
2023/09/04 01:44:25;;;;;;;13.50;8.20;;;;;;;-128.00;-1.00;-1.00;105602;1251;1003432;-80
2023/09/04 01:46:52;;;;;;;18.30;7.90;;;;;;;-128.00;-1.00;-1.00;105454;1253;1004626;-79
2023/09/04 01:49:18;;;;;;;11.80;9.10;;;;;;;-128.00;-1.00;-1.00;105526;1253;1003773;-79
2023/09/04 01:51:45;;;;;;;13.70;7.80;;;;;;;-128.00;-1.00;-1.00;105535;1254;1004219;-79
2023/09/04 01:54:12;;;;;;;12.10;8.40;;;;;;;-128.00;-1.00;-1.00;105395;1254;1004834;-80
2023/09/04 01:56:38;;;;;;;10.60;8.30;;;;;;;-128.00;-1.00;-1.00;105556;1254;1005207;-79
2023/09/04 01:59:05;;;;;;;20.10;8.60;;;;;;;-128.00;-1.00;-1.00;105530;1254;1004162;-80
2023/09/04 02:01:32;;;;;;;13.30;8.00;;;;;;;-128.00;-1.00;-1.00;105536;1254;1003997;-80
2023/09/04 02:03:59;;;;;;;12.60;8.60;;;;;;;-128.00;-1.00;-1.00;105556;1254;1004110;-79
2023/09/04 02:06:29;;;;;;;12.50;7.10;;;;;;;-128.00;-1.00;-1.00;105526;1253;1004864;-80
2023/09/04 02:08:56;;;;;;;11.60;7.40;;;;;;;-128.00;-1.00;-1.00;105763;1253;1060338;-79
2023/09/04 02:11:23;;;;;;;9.90;7.40;;;;;;;-128.00;-1.00;-1.00;105558;1252;1004058;-80
2023/09/04 02:13:49;;;;;;;8.20;7.00;;;;;;;-128.00;-1.00;-1.00;105552;1254;1004520;-80
2023/09/04 02:16:16;;;;;;;11.50;8.70;;;;;;;-128.00;-1.00;-1.00;105369;1253;1004386;-80
2023/09/04 02:18:43;;;;;;;11.70;8.10;;;;;;;-128.00;-1.00;-1.00;105550;1253;1004374;-79
2023/09/04 02:21:10;;;;;;;14.00;8.00;;;;;;;-128.00;-1.00;-1.00;105516;1254;1005080;-80
2023/09/04 02:23:36;;;;;;;9.90;8.50;;;;;;;-128.00;-1.00;-1.00;105530;1254;1004180;-80
2023/09/04 02:26:03;;;;;;;12.50;8.10;;;;;;;-128.00;-1.00;-1.00;105538;1253;1003950;-80
2023/09/04 02:28:30;;;;;;;17.10;8.60;;;;;;;-128.00;-1.00;-1.00;105538;1254;1003816;-79
2023/09/04 02:30:56;;;;;;;12.60;8.80;;;;;;;-128.00;-1.00;-1.00;105555;1254;1003235;-80
2023/09/04 02:33:23;;;;;;;12.60;8.70;;;;;;;-128.00;-1.00;-1.00;105536;1254;1004581;-80
2023/09/04 02:35:49;;;;;;;12.70;8.50;;;;;;;-128.00;-1.00;-1.00;105553;1254;1003509;-79
2023/09/04 02:38:17;;;;;;;16.40;9.00;;;;;;;-128.00;-1.00;-1.00;105549;1253;1004539;-80
2023/09/04 02:40:44;;;;;;;16.20;9.50;;;;;;;-128.00;-1.00;-1.00;105568;1253;1004115;-80
2023/09/04 02:43:10;;;;;;;14.30;8.20;;;;;;;-128.00;-1.00;-1.00;105566;1254;1004207;-79
2023/09/04 02:45:37;;;;;;;11.00;9.10;;;;;;;-128.00;-1.00;-1.00;105576;1254;1004275;-79
2023/09/04 02:48:04;;;;;;;11.90;9.00;;;;;;;-128.00;-1.00;-1.00;105567;1254;1004505;-80
2023/09/04 02:50:30;;;;;;;11.30;8.30;;;;;;;-128.00;-1.00;-1.00;105532;1253;1004318;-79
2023/09/04 02:52:56;;;;;;;10.00;8.00;;;;;;;-128.00;-1.00;-1.00;105501;1254;1003704;-80
2023/09/04 02:55:23;;;;;;;11.20;8.60;;;;;;;-128.00;-1.00;-1.00;105565;1253;1003764;-79
2023/09/04 02:57:50;;;;;;;11.80;9.10;;;;;;;-128.00;-1.00;-1.00;105577;1254;1004811;-79
2023/09/04 03:00:16;;;;;;;12.40;8.70;;;;;;;-128.00;-1.00;-1.00;105526;1253;1003739;-79
2023/09/04 03:02:43;;;;;;;12.90;8.50;;;;;;;-128.00;-1.00;-1.00;105541;1253;1004120;-80
2023/09/04 03:05:10;;;;;;;8.60;7.50;;;;;;;-128.00;-1.00;-1.00;105397;1257;1004779;-80
2023/09/04 03:07:37;;;;;;;15.80;8.50;;;;;;;-128.00;-1.00;-1.00;105589;1253;1003521;-79
2023/09/04 03:10:04;;;;;;;11.10;8.70;;;;;;;-128.00;-1.00;-1.00;105542;1255;1005295;-80
2023/09/04 03:12:31;;;;;;;12.40;8.00;;;;;;;-128.00;-1.00;-1.00;105614;1253;1005020;-79
2023/09/04 03:15:05;;;;;;;16.70;8.90;;;;;;;-128.00;-1.00;-1.00;105616;1254;1003496;-80
2023/09/04 03:17:33;;;;;;;11.80;7.80;;;;;;;-128.00;-1.00;-1.00;105653;1254;1046319;-80
2023/09/04 03:19:59;;;;;;;12.90;7.80;;;;;;;-128.00;-1.00;-1.00;105552;1252;1004115;-79
2023/09/04 03:22:26;;;;;;;11.30;8.50;;;;;;;-128.00;-1.00;-1.00;105321;1254;1005303;-79
2023/09/04 03:24:53;;;;;;;12.30;8.40;;;;;;;-128.00;-1.00;-1.00;105546;1255;1004738;-80
2023/09/04 03:27:20;;;;;;;14.60;9.00;;;;;;;-128.00;-1.00;-1.00;105534;1254;1004405;-80
2023/09/04 03:29:46;;;;;;;9.00;7.60;;;;;;;-128.00;-1.00;-1.00;105548;1253;1005128;-80
2023/09/04 03:32:13;;;;;;;13.00;8.20;;;;;;;-128.00;-1.00;-1.00;105554;1254;1003612;-79
2023/09/04 03:34:39;;;;;;;12.50;9.70;;;;;;;-128.00;-1.00;-1.00;105619;1254;1004316;-79
2023/09/04 03:37:06;;;;;;;12.90;9.10;;;;;;;-128.00;-1.00;-1.00;105567;1251;1005198;-79
2023/09/04 03:39:39;;;;;;;12.30;8.80;;;;;;;-128.00;-1.00;-1.00;105532;1254;1004268;-80
2023/09/04 03:42:06;;;;;;;14.10;8.60;;;;;;;-128.00;-1.00;-1.00;105536;1254;1047424;-80
2023/09/04 03:44:32;;;;;;;14.10;9.50;;;;;;;-128.00;-1.00;-1.00;105443;1251;1004506;-80
2023/09/04 03:46:59;;;;;;;16.60;10.00;;;;;;;-128.00;-1.00;-1.00;105544;1256;1004761;-80
2023/09/04 03:49:25;;;;;;;11.40;8.90;;;;;;;-128.00;-1.00;-1.00;105745;1251;1003851;-80
2023/09/04 03:51:52;;;;;;;10.70;8.60;;;;;;;-128.00;-1.00;-1.00;105602;1251;1004575;-80
2023/09/04 03:54:19;;;;;;;16.40;10.10;;;;;;;-128.00;-1.00;-1.00;105789;1251;1003917;-80
2023/09/04 03:56:45;;;;;;;16.10;9.60;;;;;;;-128.00;-1.00;-1.00;105774;1251;1005419;-80
2023/09/04 03:59:12;;;;;;;18.80;10.40;;;;;;;-128.00;-1.00;-1.00;105613;1251;1003834;-79
2023/09/04 04:01:38;;;;;;;16.60;9.70;;;;;;;-128.00;-1.00;-1.00;105621;1251;1004406;-79
2023/09/04 04:04:05;;;;;;;15.20;9.70;;;;;;;-128.00;-1.00;-1.00;105709;1251;1004382;-79
2023/09/04 04:06:31;;;;;;;13.00;8.70;;;;;;;-128.00;-1.00;-1.00;105590;1251;1004185;-79
2023/09/04 04:08:57;;;;;;;18.20;9.90;;;;;;;-128.00;-1.00;-1.00;105636;1251;1004987;-80
2023/09/04 04:11:27;;;;;;;13.60;9.60;;;;;;;-128.00;-1.00;-1.00;105788;1251;1004354;-80
2023/09/04 04:13:53;;;;;;;21.20;11.20;;;;;;;-128.00;-1.00;-1.00;105631;1251;1003684;-79
2023/09/04 04:16:19;;;;;;;22.70;11.10;;;;;;;-128.00;-1.00;-1.00;105799;1252;1004233;-80
2023/09/04 04:18:46;;;;;;;29.60;17.10;;;;;;;-128.00;-1.00;-1.00;105751;1251;1003273;-80
2023/09/04 04:21:12;;;;;;;16.10;12.60;;;;;;;-128.00;-1.00;-1.00;105606;1256;1004994;-80
2023/09/04 04:23:39;;;;;;;25.70;17.30;;;;;;;-128.00;-1.00;-1.00;105699;1251;1004566;-80
2023/09/04 04:26:06;;;;;;;20.20;14.90;;;;;;;-128.00;-1.00;-1.00;105701;1251;1005227;-80
2023/09/04 04:28:33;;;;;;;32.60;16.40;;;;;;;-128.00;-1.00;-1.00;105593;1251;1004371;-80
2023/09/04 04:31:02;;;;;;;26.40;18.20;;;;;;;-128.00;-1.00;-1.00;105628;1251;1004362;-80
2023/09/04 04:33:29;;;;;;;28.20;19.80;;;;;;;-128.00;-1.00;-1.00;105589;1251;1047259;-80
2023/09/04 04:35:57;;;;;;;27.10;19.20;;;;;;;-128.00;-1.00;-1.00;105576;1251;1004876;-80
2023/09/04 04:38:24;;;;;;;54.60;27.20;;;;;;;-128.00;-1.00;-1.00;105600;1251;1057524;-80
2023/09/04 04:40:50;;;;;;;44.90;26.10;;;;;;;-128.00;-1.00;-1.00;105620;1252;1004800;-80
2023/09/04 04:43:17;;;;;;;42.80;27.00;;;;;;;-128.00;-1.00;-1.00;105608;1251;1003916;-81
2023/09/04 04:45:43;;;;;;;40.80;23.90;;;;;;;-128.00;-1.00;-1.00;105599;1251;1003704;-80
2023/09/04 04:48:10;;;;;;;43.90;24.10;;;;;;;-128.00;-1.00;-1.00;105612;1251;1004627;-80
2023/09/04 04:50:36;;;;;;;76.90;35.70;;;;;;;-128.00;-1.00;-1.00;105602;1251;1005606;-80
2023/09/04 04:53:03;;;;;;;42.30;23.70;;;;;;;-128.00;-1.00;-1.00;105589;1251;1004262;-80
2023/09/04 04:55:29;;;;;;;48.10;27.20;;;;;;;-128.00;-1.00;-1.00;105515;1251;1004419;-80
2023/09/04 04:57:56;;;;;;;57.90;32.00;;;;;;;-128.00;-1.00;-1.00;105487;1251;1004401;-79
2023/09/04 05:00:23;;;;;;;59.60;28.60;;;;;;;-128.00;-1.00;-1.00;105548;1251;1005242;-80
2023/09/04 05:02:49;;;;;;;41.10;25.40;;;;;;;-128.00;-1.00;-1.00;105686;1252;1004375;-80
2023/09/04 05:05:16;;;;;;;39.70;23.60;;;;;;;-128.00;-1.00;-1.00;105589;1253;1004973;-80
2023/09/04 05:07:42;;;;;;;43.70;25.90;;;;;;;-128.00;-1.00;-1.00;105675;1251;1004955;-80
2023/09/04 05:10:09;;;;;;;35.30;23.00;;;;;;;-128.00;-1.00;-1.00;105691;1251;1005163;-80
2023/09/04 05:12:36;;;;;;;33.90;20.80;;;;;;;-128.00;-1.00;-1.00;105514;1251;1004605;-80
2023/09/04 05:15:05;;;;;;;23.90;17.30;;;;;;;-128.00;-1.00;-1.00;105533;1253;1004527;-80
2023/09/04 05:17:32;;;;;;;26.90;18.00;;;;;;;-128.00;-1.00;-1.00;105517;1251;1060171;-80
2023/09/04 05:19:58;;;;;;;21.70;15.20;;;;;;;-128.00;-1.00;-1.00;105510;1254;1004181;-80
2023/09/04 05:22:24;;;;;;;23.00;15.10;;;;;;;-128.00;-1.00;-1.00;105622;1249;1005527;-80
2023/09/04 05:24:51;;;;;;;18.70;12.70;;;;;;;-128.00;-1.00;-1.00;105610;1251;1004289;-80
2023/09/04 05:27:17;;;;;;;17.20;12.30;;;;;;;-128.00;-1.00;-1.00;105600;1253;1004945;-80
2023/09/04 05:29:44;;;;;;;19.10;11.70;;;;;;;-128.00;-1.00;-1.00;105578;1256;1003819;-80
2023/09/04 05:32:10;;;;;;;14.80;11.50;;;;;;;-128.00;-1.00;-1.00;105564;1251;1005145;-80
2023/09/04 05:34:39;;;;;;;13.70;10.90;;;;;;;-128.00;-1.00;-1.00;105582;1256;1004321;-80
2023/09/04 05:37:09;;;;;;;17.90;11.00;;;;;;;-128.00;-1.00;-1.00;105613;1251;1061079;-80
2023/09/04 05:39:36;;;;;;;14.60;10.50;;;;;;;-128.00;-1.00;-1.00;105566;1253;1058387;-80
2023/09/04 05:42:03;;;;;;;13.70;10.90;;;;;;;-128.00;-1.00;-1.00;105530;1254;1005495;-80
2023/09/04 05:44:29;;;;;;;20.30;12.50;;;;;;;-128.00;-1.00;-1.00;105534;1251;1005486;-80
2023/09/04 05:46:56;;;;;;;16.60;10.70;;;;;;;-128.00;-1.00;-1.00;105553;1251;1004330;-80
2023/09/04 05:49:22;;;;;;;17.80;10.70;;;;;;;-128.00;-1.00;-1.00;105588;1253;1003697;-80
2023/09/04 05:51:49;;;;;;;15.60;10.50;;;;;;;-128.00;-1.00;-1.00;105590;1251;1003796;-79
2023/09/04 05:54:16;;;;;;;16.10;9.80;;;;;;;-128.00;-1.00;-1.00;105591;1255;1004303;-80
2023/09/04 05:56:43;;;;;;;17.20;10.30;;;;;;;-128.00;-1.00;-1.00;105415;1251;1004371;-80
2023/09/04 05:59:10;;;;;;;19.30;10.60;;;;;;;-128.00;-1.00;-1.00;105583;1251;1004403;-80
2023/09/04 06:01:36;;;;;;;18.30;10.20;;;;;;;-128.00;-1.00;-1.00;105338;1255;1004102;-80
2023/09/04 06:04:03;;;;;;;14.20;9.70;;;;;;;-128.00;-1.00;-1.00;105579;1253;1004465;-80
2023/09/04 06:06:30;;;;;;;14.50;10.80;;;;;;;-128.00;-1.00;-1.00;105590;1250;1003858;-80
2023/09/04 06:08:56;;;;;;;16.80;10.80;;;;;;;-128.00;-1.00;-1.00;105625;1251;1005043;-79
2023/09/04 06:11:22;;;;;;;20.70;12.00;;;;;;;-128.00;-1.00;-1.00;105579;1256;1004372;-80
2023/09/04 06:13:49;;;;;;;15.30;10.60;;;;;;;-128.00;-1.00;-1.00;105580;1251;1004321;-79
2023/09/04 06:16:19;;;;;;;13.00;9.20;;;;;;;-128.00;-1.00;-1.00;105620;1251;1004664;-80
2023/09/04 06:18:45;;;;;;;14.90;9.60;;;;;;;-128.00;-1.00;-1.00;105703;1251;1059073;-80
2023/09/04 06:21:11;;;;;;;16.90;10.20;;;;;;;-128.00;-1.00;-1.00;105747;1251;1004306;-79
2023/09/04 06:23:38;;;;;;;15.60;9.00;;;;;;;-128.00;-1.00;-1.00;105696;1253;1004239;-80
2023/09/04 06:26:04;;;;;;;15.60;8.50;;;;;;;-128.00;-1.00;-1.00;105492;1251;1004463;-80
2023/09/04 06:28:31;;;;;;;17.30;8.90;;;;;;;-128.00;-1.00;-1.00;105433;1251;1004996;-80
2023/09/04 06:30:58;;;;;;;12.70;8.60;;;;;;;-128.00;-1.00;-1.00;105515;1250;1005110;-80
2023/09/04 06:33:27;;;;;;;19.40;10.90;;;;;;;-128.00;-1.00;-1.00;105386;1251;1003451;-81
2023/09/04 06:35:54;;;;;;;25.50;12.50;;;;;;;-128.00;-1.00;-1.00;105545;1250;1047614;-80
2023/09/04 06:38:20;;;;;;;20.80;11.20;;;;;;;-128.00;-1.00;-1.00;105440;1254;1004192;-80
2023/09/04 06:40:47;;;;;;;14.90;9.80;;;;;;;-128.00;-1.00;-1.00;105587;1251;1004656;-80
2023/09/04 06:43:13;;;;;;;15.70;8.60;;;;;;;-128.00;-1.00;-1.00;105513;1251;1003467;-80
2023/09/04 06:45:39;;;;;;;20.10;13.80;;;;;;;-128.00;-1.00;-1.00;105507;1256;1004191;-80
2023/09/04 06:48:06;;;;;;;13.10;10.00;;;;;;;-128.00;-1.00;-1.00;105468;1251;1004763;-80
2023/09/04 06:50:32;;;;;;;18.60;12.90;;;;;;;-128.00;-1.00;-1.00;105485;1256;1005406;-80
2023/09/04 06:52:59;;;;;;;16.80;9.90;;;;;;;-128.00;-1.00;-1.00;105519;1251;1004307;-80
2023/09/04 06:55:25;;;;;;;13.60;9.20;;;;;;;-128.00;-1.00;-1.00;105526;1251;1003884;-80
2023/09/04 06:57:51;;;;;;;11.80;8.30;;;;;;;-128.00;-1.00;-1.00;105487;1251;1003923;-80
2023/09/04 07:00:18;;;;;;;14.70;8.90;;;;;;;-128.00;-1.00;-1.00;105603;1251;1003873;-80
2023/09/04 07:02:45;;;;;;;16.10;9.50;;;;;;;-128.00;-1.00;-1.00;105544;1251;1003507;-80
2023/09/04 07:05:12;;;;;;;15.90;10.60;;;;;;;-128.00;-1.00;-1.00;105589;1251;1005122;-80
2023/09/04 07:07:38;;;;;;;18.80;10.90;;;;;;;-128.00;-1.00;-1.00;105605;1250;1004365;-81
2023/09/04 07:10:06;;;;;;;19.40;10.40;;;;;;;-128.00;-1.00;-1.00;105645;1249;1003878;-81
2023/09/04 07:12:35;;;;;;;13.90;9.70;;;;;;;-128.00;-1.00;-1.00;105686;1251;1004467;-80
2023/09/04 07:15:02;;;;;;;16.40;9.80;;;;;;;-128.00;-1.00;-1.00;105538;1251;1061569;-81
2023/09/04 07:17:29;;;;;;;15.80;10.50;;;;;;;-128.00;-1.00;-1.00;105586;1251;1003720;-81
2023/09/04 07:19:55;;;;;;;12.80;8.80;;;;;;;-128.00;-1.00;-1.00;105543;1251;1004477;-80
2023/09/04 07:22:22;;;;;;;12.60;8.60;;;;;;;-128.00;-1.00;-1.00;105546;1251;1004134;-80
2023/09/04 07:24:48;;;;;;;13.00;8.60;;;;;;;-128.00;-1.00;-1.00;105592;1251;1003804;-80
2023/09/04 07:27:15;;;;;;;16.30;9.40;;;;;;;-128.00;-1.00;-1.00;105516;1254;1005034;-80
2023/09/04 07:29:42;;;;;;;12.70;9.30;;;;;;;-128.00;-1.00;-1.00;105565;1251;1004366;-80
2023/09/04 07:32:08;;;;;;;16.90;9.90;;;;;;;-128.00;-1.00;-1.00;105463;1256;1005250;-80
2023/09/04 07:34:35;;;;;;;15.60;9.90;;;;;;;-128.00;-1.00;-1.00;105559;1251;1003723;-80
2023/09/04 07:37:02;;;;;;;11.80;9.60;;;;;;;-128.00;-1.00;-1.00;105510;1251;1004508;-80
2023/09/04 07:39:29;;;;;;;10.20;8.60;;;;;;;-128.00;-1.00;-1.00;105565;1250;1004507;-80
2023/09/04 07:41:56;;;;;;;17.70;10.20;;;;;;;-128.00;-1.00;-1.00;105626;1251;1004133;-80
2023/09/04 07:44:22;;;;;;;14.10;9.50;;;;;;;-128.00;-1.00;-1.00;105576;1251;1004625;-80
2023/09/04 07:46:49;;;;;;;15.30;9.30;;;;;;;-128.00;-1.00;-1.00;105599;1251;1004368;-80
2023/09/04 07:49:15;;;;;;;12.70;8.20;;;;;;;-128.00;-1.00;-1.00;105603;1251;1005272;-80
2023/09/04 07:51:42;;;;;;;17.40;10.00;;;;;;;-128.00;-1.00;-1.00;105540;1251;1004127;-80
2023/09/04 07:54:11;;;;;;;17.60;8.90;;;;;;;-128.00;-1.00;-1.00;105633;1251;1003679;-80
2023/09/04 07:56:38;;;;;;;12.70;8.50;;;;;;;-128.00;-1.00;-1.00;105613;1251;1059044;-80
2023/09/04 07:59:05;;;;;;;18.40;9.00;;;;;;;-128.00;-1.00;-1.00;105438;1253;1004551;-80
2023/09/04 08:01:32;;;;;;;9.70;7.40;;;;;;;-128.00;-1.00;-1.00;105598;1251;1003759;-80
2023/09/04 08:04:01;;;;;;;12.30;8.00;;;;;;;-128.00;-1.00;-1.00;105524;1251;1004810;-81
2023/09/04 08:06:28;;;;;;;8.60;7.40;;;;;;;-128.00;-1.00;-1.00;105668;1251;1058695;-81
2023/09/04 08:08:54;;;;;;;10.60;6.80;;;;;;;-128.00;-1.00;-1.00;105636;1251;1003757;-81
2023/09/04 08:11:21;;;;;;;8.40;6.50;;;;;;;-128.00;-1.00;-1.00;105688;1249;1004077;-80
2023/09/04 08:13:47;;;;;;;13.70;7.50;;;;;;;-128.00;-1.00;-1.00;105593;1251;1004323;-81
2023/09/04 08:16:13;;;;;;;9.50;6.50;;;;;;;-128.00;-1.00;-1.00;105539;1251;1005267;-81
2023/09/04 08:18:40;;;;;;;12.00;6.80;;;;;;;-128.00;-1.00;-1.00;105550;1251;1005382;-80
2023/09/04 08:21:06;;;;;;;6.40;5.60;;;;;;;-128.00;-1.00;-1.00;105615;1251;1004659;-80
2023/09/04 08:23:33;;;;;;;9.00;5.40;;;;;;;-128.00;-1.00;-1.00;105566;1251;1004150;-81
2023/09/04 08:25:59;;;;;;;9.00;6.00;;;;;;;-128.00;-1.00;-1.00;105650;1250;1004786;-81
2023/09/04 08:28:26;;;;;;;13.30;6.60;;;;;;;-128.00;-1.00;-1.00;105641;1251;1003997;-81
2023/09/04 08:30:53;;;;;;;8.40;5.50;;;;;;;-128.00;-1.00;-1.00;105609;1251;1004452;-81
2023/09/04 08:33:19;;;;;;;11.50;5.40;;;;;;;-128.00;-1.00;-1.00;105582;1250;1004514;-81
2023/09/04 08:35:46;;;;;;;12.70;6.60;;;;;;;-128.00;-1.00;-1.00;105642;1251;1003873;-80
2023/09/04 08:38:12;;;;;;;9.50;6.20;;;;;;;-128.00;-1.00;-1.00;105649;1250;1004180;-81
2023/09/04 08:40:40;;;;;;;10.60;6.40;;;;;;;-128.00;-1.00;-1.00;105615;1250;1004589;-80
2023/09/04 08:43:07;;;;;;;8.90;5.80;;;;;;;-128.00;-1.00;-1.00;105670;1250;1003273;-80
2023/09/04 08:45:35;;;;;;;8.80;5.80;;;;;;;-128.00;-1.00;-1.00;105587;1251;1004587;-81
2023/09/04 08:48:02;;;;;;;9.40;6.30;;;;;;;-128.00;-1.00;-1.00;105545;1250;1003458;-81
2023/09/04 08:50:30;;;;;;;9.40;6.40;;;;;;;-128.00;-1.00;-1.00;105588;1251;1004253;-80
2023/09/04 08:52:56;;;;;;;11.40;6.00;;;;;;;-128.00;-1.00;-1.00;105546;1250;1003754;-80
2023/09/04 08:55:22;;;;;;;11.70;6.30;;;;;;;-128.00;-1.00;-1.00;105500;1251;1004183;-80
2023/09/04 08:57:49;;;;;;;9.70;6.10;;;;;;;-128.00;-1.00;-1.00;105468;1256;1004583;-81
2023/09/04 09:00:16;;;;;;;14.10;7.00;;;;;;;-128.00;-1.00;-1.00;105455;1251;1003610;-81
2023/09/04 09:02:43;;;;;;;10.50;6.60;;;;;;;-128.00;-1.00;-1.00;105632;1250;1003707;-81
2023/09/04 09:05:12;;;;;;;11.80;6.10;;;;;;;-128.00;-1.00;-1.00;105632;1251;1003800;-80
2023/09/04 09:07:39;;;;;;;9.80;6.90;;;;;;;-128.00;-1.00;-1.00;105619;1251;1059120;-80
2023/09/04 09:10:06;;;;;;;10.00;6.10;;;;;;;-128.00;-1.00;-1.00;105602;1250;1004782;-80
2023/09/04 09:12:33;;;;;;;12.70;6.60;;;;;;;-128.00;-1.00;-1.00;105683;1251;1004764;-80
2023/09/04 09:14:59;;;;;;;9.10;5.70;;;;;;;-128.00;-1.00;-1.00;105709;1250;1004100;-80
2023/09/04 09:17:26;;;;;;;10.80;6.10;;;;;;;-128.00;-1.00;-1.00;105654;1250;1003345;-80
2023/09/04 09:19:52;;;;;;;10.10;7.40;;;;;;;-128.00;-1.00;-1.00;105706;1250;1004143;-81
2023/09/04 09:22:20;;;;;;;11.70;5.90;;;;;;;-128.00;-1.00;-1.00;105461;1251;1005248;-80
2023/09/04 09:24:53;;;;;;;8.50;5.80;;;;;;;-128.00;-1.00;-1.00;105548;1250;1004827;-80
2023/09/04 09:27:24;;;;;;;8.10;5.70;;;;;;;-128.00;-1.00;-1.00;105561;1252;1046521;-81
2023/09/04 09:29:50;;;;;;;13.60;6.80;;;;;;;-128.00;-1.00;-1.00;105565;1251;1060385;-80
2023/09/04 09:32:18;;;;;;;10.40;6.50;;;;;;;-128.00;-1.00;-1.00;105692;1250;1004271;-80
2023/09/04 09:34:52;;;;;;;9.20;5.80;;;;;;;-128.00;-1.00;-1.00;105510;1251;1004419;-80
2023/09/04 09:37:23;;;;;;;10.70;5.70;;;;;;;-128.00;-1.00;-1.00;105620;1250;1047012;-81
2023/09/04 09:39:50;;;;;;;9.90;6.00;;;;;;;-128.00;-1.00;-1.00;105642;1249;1047072;-81
2023/09/04 09:42:16;;;;;;;8.60;6.20;;;;;;;-128.00;-1.00;-1.00;105646;1250;1004269;-81
2023/09/04 09:44:43;;;;;;;10.50;6.80;;;;;;;-128.00;-1.00;-1.00;105619;1250;1004182;-80
2023/09/04 09:47:13;;;;;;;15.80;7.10;;;;;;;-128.00;-1.00;-1.00;105576;1251;1005015;-80
2023/09/04 09:49:40;;;;;;;8.70;6.70;;;;;;;-128.00;-1.00;-1.00;105582;1250;1046665;-80
2023/09/04 09:52:10;;;;;;;7.60;6.40;;;;;;;-128.00;-1.00;-1.00;105571;1250;1004813;-80
2023/09/04 09:54:41;;;;;;;10.80;7.60;;;;;;;-128.00;-1.00;-1.00;105605;1250;1062296;-81
2023/09/04 09:57:12;;;;;;;12.50;7.10;;;;;;;-128.00;-1.00;-1.00;105512;1251;1057490;-80
2023/09/04 09:59:41;;;;;;;9.80;6.40;;;;;;;-128.00;-1.00;-1.00;105551;1251;1057900;-80
2023/09/04 10:02:08;;;;;;;9.90;7.70;;;;;;;-128.00;-1.00;-1.00;105592;1251;1047025;-80
2023/09/04 10:04:36;;;;;;;9.30;6.40;;;;;;;-128.00;-1.00;-1.00;105560;1251;1004705;-81
2023/09/04 10:07:03;;;;;;;10.00;6.80;;;;;;;-128.00;-1.00;-1.00;105633;1251;1005096;-80
2023/09/04 10:09:43;;;;;;;12.50;7.40;;;;;;;-128.00;-1.00;-1.00;105565;1251;1004332;-80
2023/09/04 10:12:16;;;;;;;11.10;8.00;;;;;;;-128.00;-1.00;-1.00;105633;1251;1059603;-81
2023/09/04 10:14:44;;;;;;;11.80;7.40;;;;;;;-128.00;-1.00;-1.00;105493;1251;1047892;-81
2023/09/04 10:17:18;;;;;;;10.30;6.40;;;;;;;-128.00;-1.00;-1.00;105378;1254;1047731;-80
2023/09/04 10:19:47;;;;;;;17.00;7.20;;;;;;;-128.00;-1.00;-1.00;105584;1250;1062508;-80
2023/09/04 10:22:27;;;;;;;7.30;6.20;;;;;;;-128.00;-1.00;-1.00;105510;1250;1058349;-81
2023/09/04 10:25:09;;;;;;;12.20;6.40;;;;;;;-128.00;-1.00;-1.00;105618;1250;1059727;-80
2023/09/04 10:27:40;;;;;;;7.70;6.30;;;;;;;-128.00;-1.00;-1.00;105754;1251;1046030;-80
2023/09/04 10:30:07;;;;;;;11.10;7.10;;;;;;;-128.00;-1.00;-1.00;105610;1251;1046390;-81
2023/09/04 10:32:33;;;;;;;7.90;6.40;;;;;;;-128.00;-1.00;-1.00;105504;1254;1004102;-81
2023/09/04 10:35:01;;;;;;;9.20;6.60;;;;;;;-128.00;-1.00;-1.00;105672;1251;1005120;-81
2023/09/04 10:37:29;;;;;;;9.40;7.30;;;;;;;-128.00;-1.00;-1.00;105450;1251;1003991;-81
2023/09/04 10:39:55;;;;;;;13.60;7.10;;;;;;;-128.00;-1.00;-1.00;105589;1253;1005174;-81
2023/09/04 10:42:23;;;;;;;11.80;7.60;;;;;;;-128.00;-1.00;-1.00;105600;1251;1005439;-81
2023/09/04 10:44:51;;;;;;;10.40;7.20;;;;;;;-128.00;-1.00;-1.00;105750;1250;1004104;-81
2023/09/04 10:47:18;;;;;;;10.50;6.90;;;;;;;-128.00;-1.00;-1.00;105683;1251;1003509;-81
2023/09/04 10:49:44;;;;;;;9.40;7.10;;;;;;;-128.00;-1.00;-1.00;105704;1253;1003432;-80
2023/09/04 10:52:11;;;;;;;10.40;7.50;;;;;;;-128.00;-1.00;-1.00;105774;1251;1004719;-81
2023/09/04 10:54:38;;;;;;;10.70;7.10;;;;;;;-128.00;-1.00;-1.00;105794;1249;1003573;-81
2023/09/04 10:57:07;;;;;;;8.40;6.90;;;;;;;-128.00;-1.00;-1.00;105801;1251;1004302;-80
2023/09/04 10:59:52;;;;;;;10.70;7.40;;;;;;;-128.00;-1.00;-1.00;105729;1250;1057353;-80
2023/09/04 11:02:32;;;;;;;8.90;7.10;;;;;;;-128.00;-1.00;-1.00;105621;1249;1058474;-81
2023/09/04 11:05:00;;;;;;;12.00;7.40;;;;;;;-128.00;-1.00;-1.00;105742;1251;1045880;-80
2023/09/04 11:07:28;;;;;;;16.20;8.30;;;;;;;-128.00;-1.00;-1.00;105674;1253;1003124;-81